Time;durP1;ratioP1;P1;durP2;ratioP2;P2;SDS_P1;SDS_P2;PMS_P1;PMS_P2;Temp;Humidity;BMP_temperature;BMP_pressure;BME280_temperature;BME280_humidity;BME280_pressure;Samples;Min_cycle;Max_cycle;Signal;HPM_P1;HPM_P2
2021/09/17 00:00:40;;;;;;;6.9;5.6;;;;;;;14.78;94.33496;938.5887;;;;
2021/09/17 00:03:05;;;;;;;7;5.7;;;;;;;14.85;93.86621;938.6727;;;;
2021/09/17 00:05:30;;;;;;;7.9;5.8;;;;;;;14.77;93.89551;938.6873;;;;
2021/09/17 00:07:55;;;;;;;7.2;5.5;;;;;;;14.84;94.03809;938.6704;;;;
2021/09/17 00:10:49;;;;;;;6.4;5.4;;;;;;;14.88;94.30078;938.6766;;;;
2021/09/17 00:13:14;;;;;;;7.1;5.3;;;;;;;14.88;93.59766;938.6669;;;;
2021/09/17 00:15:47;;;;;;;6.6;5.5;;;;;;;14.92;94.44531;938.6811;;;;
2021/09/17 00:18:14;;;;;;;6.4;5.3;;;;;;;14.89;95.22363;938.5867;;;;
2021/09/17 00:20:39;;;;;;;8;6;;;;;;;14.94;95.12012;938.5856;;;;
2021/09/17 00:23:04;;;;;;;6.7;5.6;;;;;;;15.04;94.58789;938.5538;;;;
2021/09/17 00:25:29;;;;;;;6.7;5.1;;;;;;;15.12;94.38672;938.5669;;;;
2021/09/17 00:27:55;;;;;;;5.2;4.5;;;;;;;15.02;93.09375;938.5276;;;;
2021/09/17 00:30:23;;;;;;;6;4.7;;;;;;;15.06;93.41699;938.5288;;;;
2021/09/17 00:32:48;;;;;;;6;4.8;;;;;;;15.07;93.38281;938.5103;;;;
2021/09/17 00:35:13;;;;;;;6;4.5;;;;;;;15;94.94922;938.4785;;;;
2021/09/17 00:37:38;;;;;;;5.4;4.8;;;;;;;15.01;95.09961;938.4713;;;;
2021/09/17 00:40:03;;;;;;;6.7;5.2;;;;;;;15.01;94.61719;938.4214;;;;
2021/09/17 00:42:36;;;;;;;7.1;5.5;;;;;;;14.91;95.1377;938.4133;;;;
2021/09/17 00:45:22;;;;;;;10;5.7;;;;;;;14.84;95.36426;938.4572;;;;
2021/09/17 00:47:47;;;;;;;9;6.2;;;;;;;14.89;95.16602;938.3502;;;;
2021/09/17 00:50:13;;;;;;;8.6;6.3;;;;;;;14.73;95.74316;938.4279;;;;
2021/09/17 00:52:38;;;;;;;7.3;6.1;;;;;;;14.86;94.46875;938.3688;;;;
2021/09/17 00:55:03;;;;;;;10.8;7.3;;;;;;;14.69;95.75684;938.3239;;;;
2021/09/17 00:57:30;;;;;;;8.9;7.1;;;;;;;14.36;98.26367;938.3314;;;;
2021/09/17 00:59:55;;;;;;;10.4;6.9;;;;;;;14.46;97.96387;938.2385;;;;
2021/09/17 01:02:21;;;;;;;8.8;6.8;;;;;;;14.61;97.07617;938.2144;;;;
2021/09/17 01:04:46;;;;;;;8.5;6.7;;;;;;;14.66;96.56934;938.1847;;;;
2021/09/17 01:07:13;;;;;;;9.8;6.7;;;;;;;14.71;96.18945;938.0938;;;;
2021/09/17 01:09:38;;;;;;;9.5;6.2;;;;;;;14.73;96.51563;938.1682;;;;
2021/09/17 01:12:05;;;;;;;8.1;6.2;;;;;;;14.69;95.79102;938.1893;;;;
2021/09/17 01:14:29;;;;;;;7.5;5.8;;;;;;;14.37;97.39258;938.2023;;;;
2021/09/17 01:16:54;;;;;;;9.5;6.6;;;;;;;14.51;96.4082;938.2086;;;;
2021/09/17 01:19:22;;;;;;;9.5;6.5;;;;;;;14.52;95.93848;938.1356;;;;
2021/09/17 01:21:47;;;;;;;9.4;6.7;;;;;;;14.46;95.68262;938.0862;;;;
2021/09/17 01:24:13;;;;;;;9.2;6.8;;;;;;;14.43;95.37891;938.1032;;;;
2021/09/17 01:26:38;;;;;;;9.9;6.5;;;;;;;14.45;95.33691;938.0862;;;;
2021/09/17 01:29:04;;;;;;;9.6;6.4;;;;;;;14.23;96.54199;938.1726;;;;
2021/09/17 01:31:29;;;;;;;8.6;6.8;;;;;;;14.23;95.68066;938.0948;;;;
2021/09/17 01:33:55;;;;;;;9.8;6.8;;;;;;;14.31;95.68555;938.1361;;;;
2021/09/17 01:36:38;;;;;;;9.8;6.8;;;;;;;14.3;95.54492;938.1186;;;;
2021/09/17 01:39:04;;;;;;;10;7.2;;;;;;;14.29;95.68164;938.073;;;;
2021/09/17 01:41:29;;;;;;;10.4;7;;;;;;;14.33;94.95215;938.1241;;;;
2021/09/17 01:43:54;;;;;;;9.2;7;;;;;;;14.17;95.59766;938.0973;;;;
2021/09/17 01:46:20;;;;;;;9.5;6.8;;;;;;;14.16;95.51367;938.0853;;;;
2021/09/17 01:48:46;;;;;;;9.2;6.8;;;;;;;14.18;95.10254;938.0628;;;;
2021/09/17 01:51:10;;;;;;;11.9;6.6;;;;;;;14.21;95.1084;938.1052;;;;
2021/09/17 01:53:39;;;;;;;10.2;7;;;;;;;13.96;96.16211;938.097;;;;
2021/09/17 01:56:04;;;;;;;10.8;7.5;;;;;;;14.03;96.29102;938.0082;;;;
2021/09/17 01:58:29;;;;;;;11.1;7.3;;;;;;;14.17;95.66699;938.0452;;;;
2021/09/17 02:00:54;;;;;;;11.1;7.4;;;;;;;14.15;95.97363;938.0637;;;;
2021/09/17 02:03:19;;;;;;;9.6;7;;;;;;;14.25;95.35059;938.0355;;;;
2021/09/17 02:05:45;;;;;;;9.8;6.7;;;;;;;14.19;95.47363;938.0203;;;;
2021/09/17 02:08:11;;;;;;;10.2;7.3;;;;;;;14.16;95.35449;938.0349;;;;
2021/09/17 02:10:36;;;;;;;11.2;8.1;;;;;;;14.06;95.51465;938.0673;;;;
2021/09/17 02:13:03;;;;;;;13.3;8.4;;;;;;;13.95;95.85938;938.0323;;;;
2021/09/17 02:15:44;;;;;;;10.7;7.3;;;;;;;13.9;96.57227;938.0341;;;;
2021/09/17 02:18:09;;;;;;;9.9;7.5;;;;;;;13.95;96.23926;938.0267;;;;
2021/09/17 02:20:35;;;;;;;10.6;7.5;;;;;;;13.76;96.86621;938.0334;;;;
2021/09/17 02:23:00;;;;;;;10.1;7.1;;;;;;;13.78;96.31641;938.0519;;;;
2021/09/17 02:25:27;;;;;;;8.6;6.6;;;;;;;13.89;95.95117;938.0381;;;;
2021/09/17 02:27:52;;;;;;;9.2;6.8;;;;;;;13.94;94.89063;938.009;;;;
2021/09/17 02:30:21;;;;;;;9.4;7.1;;;;;;;13.79;95.78906;938.0237;;;;
2021/09/17 02:32:48;;;;;;;11.3;6.9;;;;;;;13.77;95.76172;937.9822;;;;
2021/09/17 02:35:13;;;;;;;11;7.6;;;;;;;13.85;95.19336;938.0095;;;;
2021/09/17 02:37:39;;;;;;;10.7;7.4;;;;;;;13.91;94.59473;937.9684;;;;
2021/09/17 02:40:04;;;;;;;10;7;;;;;;;13.84;94.56934;937.959;;;;
2021/09/17 02:42:31;;;;;;;8.2;6.6;;;;;;;13.91;94.89648;937.9196;;;;
2021/09/17 02:44:56;;;;;;;11.6;6.9;;;;;;;13.95;95.15918;938.0347;;;;
2021/09/17 02:47:21;;;;;;;9;6.7;;;;;;;13.86;94.63086;938.055;;;;
2021/09/17 02:49:56;;;;;;;9.3;6.9;;;;;;;13.83;95.1084;937.9655;;;;
2021/09/17 02:52:24;;;;;;;9.2;6.5;;;;;;;13.88;94.83105;937.9542;;;;
2021/09/17 02:54:48;;;;;;;11.4;7.2;;;;;;;13.9;95.12402;937.9741;;;;
2021/09/17 02:57:13;;;;;;;9.9;6.9;;;;;;;13.86;94.55273;937.8653;;;;
2021/09/17 02:59:38;;;;;;;9;6.8;;;;;;;13.85;94.68848;937.8758;;;;
2021/09/17 03:02:04;;;;;;;10.7;6.9;;;;;;;13.85;94.45898;937.8886;;;;
2021/09/17 03:04:31;;;;;;;10.1;6.4;;;;;;;13.95;93.66113;937.8842;;;;
2021/09/17 03:07:18;;;;;;;10.1;6.3;;;;;;;14.02;93.49219;937.8322;;;;
2021/09/17 03:09:44;;;;;;;9.4;6.9;;;;;;;13.85;93.39844;937.8045;;;;
2021/09/17 03:12:09;;;;;;;9.7;7.3;;;;;;;13.99;93.53223;937.8136;;;;
2021/09/17 03:14:37;;;;;;;11.5;7.7;;;;;;;14;92.98242;937.7871;;;;
2021/09/17 03:17:04;;;;;;;11.9;7.4;;;;;;;13.92;93.02246;937.8019;;;;
2021/09/17 03:19:33;;;;;;;9.2;7.1;;;;;;;13.9;93.30469;937.8059;;;;
2021/09/17 03:22:00;;;;;;;10.3;7.4;;;;;;;13.89;93.20117;937.8204;;;;
2021/09/17 03:24:23;;;;;;;11;7.5;;;;;;;13.83;94.20117;937.8038;;;;
2021/09/17 03:26:51;;;;;;;9.8;7.4;;;;;;;13.95;93.85645;937.7529;;;;
2021/09/17 03:29:19;;;;;;;10.7;7.2;;;;;;;13.93;93.52148;937.7722;;;;
2021/09/17 03:31:44;;;;;;;9.3;7;;;;;;;13.99;93.75293;937.8488;;;;
2021/09/17 03:34:10;;;;;;;10.7;7.2;;;;;;;14.02;93.5957;937.7994;;;;
2021/09/17 03:36:42;;;;;;;10.7;7.5;;;;;;;14.02;93.25098;937.7874;;;;
2021/09/17 03:39:02;;;;;;;12;6.9;;;;;;;14.02;93.00879;937.7338;;;;
2021/09/17 03:41:27;;;;;;;9.9;7.3;;;;;;;14.04;92.57715;937.82;;;;
2021/09/17 03:44:40;;;;;;;8.6;6.7;;;;;;;13.97;93.25293;937.8097;;;;
2021/09/17 03:47:07;;;;;;;10.4;7.2;;;;;;;14.08;93.13574;937.8303;;;;
2021/09/17 03:49:33;;;;;;;10.9;6.8;;;;;;;14.12;92.97266;937.8084;;;;
2021/09/17 03:51:59;;;;;;;10.5;7.6;;;;;;;14.04;93.08398;937.8144;;;;
2021/09/17 03:54:27;;;;;;;10.9;7.5;;;;;;;14.07;93.05273;937.7687;;;;
2021/09/17 03:56:50;;;;;;;12.5;8.1;;;;;;;14.04;93.36035;937.8024;;;;
2021/09/17 03:59:15;;;;;;;10.5;7.1;;;;;;;13.93;93.61133;937.7665;;;;
2021/09/17 04:02:30;;;;;;;10.6;7.6;;;;;;;13.9;93.55957;937.7347;;;;
2021/09/17 04:04:55;;;;;;;10.2;6.9;;;;;;;13.95;93.83398;937.7681;;;;
2021/09/17 04:07:22;;;;;;;8.9;6.7;;;;;;;13.97;94.05859;937.7192;;;;
2021/09/17 04:09:47;;;;;;;9.6;6.9;;;;;;;13.88;94.74023;937.734;;;;
2021/09/17 04:12:14;;;;;;;10.3;7;;;;;;;13.85;94.26074;937.7205;;;;
2021/09/17 04:14:39;;;;;;;8.9;7;;;;;;;13.79;94.48926;937.6108;;;;
2021/09/17 04:17:07;;;;;;;9.5;6.9;;;;;;;13.8;94.1709;937.666;;;;
2021/09/17 04:19:36;;;;;;;11.7;7.3;;;;;;;13.86;93.95215;937.6772;;;;
2021/09/17 04:22:00;;;;;;;9.5;6.9;;;;;;;13.92;94.28809;937.7186;;;;
2021/09/17 04:24:25;;;;;;;8.7;6.1;;;;;;;13.88;94.01367;937.758;;;;
2021/09/17 04:26:51;;;;;;;7.7;6.2;;;;;;;13.89;93.17773;937.6844;;;;
2021/09/17 04:29:17;;;;;;;9.2;6;;;;;;;13.88;94.07324;937.758;;;;
2021/09/17 04:31:42;;;;;;;8.5;6.1;;;;;;;13.98;93.56543;937.7936;;;;
2021/09/17 04:34:08;;;;;;;8.7;5.9;;;;;;;14.04;93.07227;937.8304;;;;
2021/09/17 04:36:32;;;;;;;9.2;6.8;;;;;;;14.04;92.66992;937.8361;;;;
2021/09/17 04:38:58;;;;;;;10.1;6.7;;;;;;;13.98;92.98828;937.8865;;;;
2021/09/17 04:41:23;;;;;;;7.7;6.1;;;;;;;13.93;93.12793;937.9211;;;;
2021/09/17 04:43:50;;;;;;;9.9;7;;;;;;;13.9;93.39648;937.9269;;;;
2021/09/17 04:46:16;;;;;;;9.4;6.6;;;;;;;13.95;93.70898;937.9594;;;;
2021/09/17 04:48:41;;;;;;;10.6;7.9;;;;;;;13.98;93.80469;937.9305;;;;
2021/09/17 04:51:07;;;;;;;11.6;8.4;;;;;;;13.96;94.46875;937.9754;;;;
2021/09/17 04:53:32;;;;;;;11.6;8.4;;;;;;;13.94;94.88086;937.8914;;;;
2021/09/17 04:55:59;;;;;;;12.3;8.1;;;;;;;13.8;95.6084;937.8652;;;;
2021/09/17 04:58:25;;;;;;;10.5;7.3;;;;;;;13.78;96.12012;937.9006;;;;
2021/09/17 05:00:52;;;;;;;11.1;7.6;;;;;;;13.63;96.3877;937.8699;;;;
2021/09/17 05:03:17;;;;;;;12.3;8.1;;;;;;;13.61;96.07324;937.8272;;;;
2021/09/17 05:05:42;;;;;;;14.4;8.5;;;;;;;13.48;96.58301;937.9467;;;;
2021/09/17 05:08:07;;;;;;;10.4;7.2;;;;;;;13.46;96.69434;937.9556;;;;
2021/09/17 05:10:35;;;;;;;9.8;7.3;;;;;;;13.55;96.39258;937.981;;;;
2021/09/17 05:13:00;;;;;;;9.5;7;;;;;;;13.63;95.67676;937.9634;;;;
2021/09/17 05:15:29;;;;;;;9.5;7.2;;;;;;;13.59;95.88281;938.0265;;;;
2021/09/17 05:17:54;;;;;;;9.5;6.5;;;;;;;13.71;95.86523;937.9896;;;;
2021/09/17 05:20:19;;;;;;;9.2;7.2;;;;;;;13.75;95.52539;938.0847;;;;
2021/09/17 05:22:48;;;;;;;11.5;7.4;;;;;;;13.83;95.17969;938.0808;;;;
2021/09/17 05:25:13;;;;;;;8.7;7;;;;;;;13.76;95.2998;938.128;;;;
2021/09/17 05:27:38;;;;;;;9.6;6.9;;;;;;;13.72;95.60254;938.1305;;;;
2021/09/17 05:30:03;;;;;;;9.5;6.5;;;;;;;13.56;95.75098;938.1498;;;;
2021/09/17 05:32:28;;;;;;;9.6;6.5;;;;;;;13.43;96.58301;938.122;;;;
2021/09/17 05:34:53;;;;;;;8.8;6.5;;;;;;;13.44;96.58691;938.2172;;;;
2021/09/17 05:37:18;;;;;;;9.2;5.6;;;;;;;13.26;96.67285;938.2523;;;;
2021/09/17 05:39:44;;;;;;;7.9;6.2;;;;;;;13.34;96.12598;938.3114;;;;
2021/09/17 05:42:09;;;;;;;9.6;5.9;;;;;;;13.19;96.34668;938.3384;;;;
2021/09/17 05:44:36;;;;;;;6.4;4.9;;;;;;;13.09;96.71582;938.2935;;;;
2021/09/17 05:47:01;;;;;;;6.2;4.9;;;;;;;13.13;96.00195;938.3326;;;;
2021/09/17 05:49:26;;;;;;;6;5;;;;;;;13.17;95.34375;938.3334;;;;
2021/09/17 05:51:51;;;;;;;5.4;4.6;;;;;;;13.18;94.86328;938.3265;;;;
2021/09/17 05:54:17;;;;;;;7.1;5;;;;;;;13.05;95.44434;938.3918;;;;
2021/09/17 05:56:42;;;;;;;6;4.7;;;;;;;13.12;95.37988;938.3958;;;;
2021/09/17 05:59:09;;;;;;;6.9;4.5;;;;;;;13.04;96.13086;938.3989;;;;
2021/09/17 06:01:34;;;;;;;5.4;4.8;;;;;;;12.92;96.89746;938.3699;;;;
2021/09/17 06:04:00;;;;;;;6.6;5;;;;;;;13;96.30469;938.3691;;;;
2021/09/17 06:06:44;;;;;;;6.6;4.9;;;;;;;13.04;96.12012;938.375;;;;
2021/09/17 06:09:08;;;;;;;7.5;5.5;;;;;;;13.05;96.68457;938.4846;;;;
2021/09/17 06:11:34;;;;;;;6.9;5.2;;;;;;;13.02;96.15039;938.4453;;;;
2021/09/17 06:13:59;;;;;;;6.4;4.8;;;;;;;13.12;95.56348;938.4437;;;;
2021/09/17 06:16:28;;;;;;;6.6;4.4;;;;;;;13.24;95.15234;938.457;;;;
2021/09/17 06:19:01;;;;;;;5.7;4.6;;;;;;;13.28;94.62012;938.4387;;;;
2021/09/17 06:21:20;;;;;;;5.2;4.3;;;;;;;13.22;94.38867;938.4395;;;;
2021/09/17 06:23:45;;;;;;;5.3;4.2;;;;;;;13.18;94.57617;938.4392;;;;
2021/09/17 06:26:11;;;;;;;5.8;4.4;;;;;;;13.2;94.87891;938.48;;;;
2021/09/17 06:28:36;;;;;;;5.8;4.6;;;;;;;13.32;93.9043;938.4314;;;;
2021/09/17 06:31:01;;;;;;;5.6;4.6;;;;;;;13.2;94.40918;938.4456;;;;
2021/09/17 06:33:26;;;;;;;7.8;4.5;;;;;;;13.31;94.43066;938.4155;;;;
2021/09/17 06:35:54;;;;;;;6.6;4.1;;;;;;;13.27;93.89453;938.4147;;;;
2021/09/17 06:38:19;;;;;;;5.8;4.2;;;;;;;13.33;93.49316;938.3994;;;;
2021/09/17 06:40:45;;;;;;;5.8;4.4;;;;;;;13.27;94.10156;938.4114;;;;
2021/09/17 06:43:10;;;;;;;6.2;4.4;;;;;;;13.22;94.30957;938.4619;;;;
2021/09/17 06:45:36;;;;;;;4.7;4.2;;;;;;;13.26;93.89258;938.3915;;;;
2021/09/17 06:48:01;;;;;;;5.3;3.8;;;;;;;13.36;93.01758;938.3834;;;;
2021/09/17 06:50:27;;;;;;;5.7;4;;;;;;;13.18;93.62207;938.3528;;;;
2021/09/17 06:52:53;;;;;;;5;3.7;;;;;;;13.36;92.61523;938.4066;;;;
2021/09/17 06:55:19;;;;;;;4.3;3.5;;;;;;;13.51;92.05078;938.3995;;;;
2021/09/17 06:57:44;;;;;;;4.6;3.4;;;;;;;13.54;91.7002;938.3842;;;;
2021/09/17 07:00:09;;;;;;;4.8;3.7;;;;;;;13.57;91.6709;938.3906;;;;
2021/09/17 07:02:34;;;;;;;5;3.8;;;;;;;13.52;91.39551;938.4202;;;;
2021/09/17 07:05:00;;;;;;;6.6;4;;;;;;;13.56;91.18652;938.3842;;;;
2021/09/17 07:07:25;;;;;;;5;3.8;;;;;;;13.55;91.8418;938.3994;;;;
2021/09/17 07:09:51;;;;;;;4.8;3.9;;;;;;;13.67;91.41602;938.373;;;;
2021/09/17 07:12:16;;;;;;;4.9;4.1;;;;;;;13.77;91.32129;938.3536;;;;
2021/09/17 07:14:44;;;;;;;5.9;4.1;;;;;;;13.76;91.80273;938.4064;;;;
2021/09/17 07:17:11;;;;;;;7.4;4.5;;;;;;;13.85;91.33887;938.3745;;;;
2021/09/17 07:19:36;;;;;;;5.8;4.1;;;;;;;13.82;91.11426;938.3801;;;;
2021/09/17 07:22:05;;;;;;;6.7;4.6;;;;;;;13.89;90.37012;938.3183;;;;
2021/09/17 07:24:27;;;;;;;5.9;4;;;;;;;13.91;90.39648;938.291;;;;
2021/09/17 07:26:53;;;;;;;6.1;4.3;;;;;;;14;90.21973;938.3539;;;;
2021/09/17 07:29:18;;;;;;;4.9;4.1;;;;;;;13.95;90.24316;938.3597;;;;
2021/09/17 07:31:47;;;;;;;5.6;4.5;;;;;;;13.95;91.00293;938.3429;;;;
2021/09/17 07:34:11;;;;;;;6.3;4.5;;;;;;;14.02;90.09668;938.3837;;;;
2021/09/17 07:36:37;;;;;;;5.4;4.5;;;;;;;14.1;90.09082;938.4444;;;;
2021/09/17 07:39:02;;;;;;;7.1;4.5;;;;;;;13.98;90.31836;938.3524;;;;
2021/09/17 07:41:28;;;;;;;6.5;4.5;;;;;;;13.99;89.0791;938.3611;;;;
2021/09/17 07:43:53;;;;;;;5.9;4.3;;;;;;;14.17;89.35742;938.3936;;;;
2021/09/17 07:46:21;;;;;;;7.2;4.6;;;;;;;14.19;89.1748;938.3631;;;;
2021/09/17 07:48:46;;;;;;;5.6;4.5;;;;;;;14.2;88.68359;938.4095;;;;
2021/09/17 07:51:13;;;;;;;5.4;4.2;;;;;;;14.13;88.44043;938.4835;;;;
2021/09/17 07:53:38;;;;;;;5.6;4.5;;;;;;;14.28;87.55957;938.4462;;;;
2021/09/17 07:56:06;;;;;;;7.5;4.6;;;;;;;14.32;87.7627;938.4509;;;;
2021/09/17 07:58:31;;;;;;;6.5;4.9;;;;;;;14.29;88.17383;938.4822;;;;
2021/09/17 08:00:56;;;;;;;4.8;4.3;;;;;;;14.36;87.3916;938.5092;;;;
2021/09/17 08:03:28;;;;;;;6.9;4.5;;;;;;;14.57;86.38477;938.4894;;;;
2021/09/17 08:05:47;;;;;;;5.1;3.9;;;;;;;14.65;85.1084;938.4445;;;;
2021/09/17 08:08:13;;;;;;;6.2;4.1;;;;;;;14.64;87.79199;938.4269;;;;
2021/09/17 08:10:39;;;;;;;4.9;3.8;;;;;;;14.78;85.69922;938.5005;;;;
2021/09/17 08:13:07;;;;;;;4.3;3.9;;;;;;;14.77;84.56836;938.4917;;;;
2021/09/17 08:15:38;;;;;;;5.2;4.4;;;;;;;14.84;84.91602;938.498;;;;
2021/09/17 08:18:03;;;;;;;5.8;4.3;;;;;;;15.08;83.99414;938.4213;;;;
2021/09/17 08:20:37;;;;;;;6.4;4.5;;;;;;;15.06;83.23926;938.4895;;;;
2021/09/17 08:23:00;;;;;;;5.9;4.7;;;;;;;15.2;83.90039;938.4708;;;;
2021/09/17 08:25:28;;;;;;;6;4.7;;;;;;;15.42;83.75879;938.5137;;;;
2021/09/17 08:27:53;;;;;;;7.2;5.1;;;;;;;15.64;82.78516;938.4889;;;;
2021/09/17 08:30:22;;;;;;;5.9;4.1;;;;;;;15.36;83.50586;938.4633;;;;
2021/09/17 08:32:47;;;;;;;5.6;3.9;;;;;;;15.09;83.46582;938.5542;;;;
2021/09/17 08:35:16;;;;;;;5.1;3.6;;;;;;;15.27;82.88867;938.5266;;;;
2021/09/17 08:37:41;;;;;;;6;3.6;;;;;;;15.17;82.56738;938.4414;;;;
2021/09/17 08:40:12;;;;;;;9;4.3;;;;;;;15.53;82.61328;938.4863;;;;
2021/09/17 08:42:38;;;;;;;4;3.4;;;;;;;15.56;81.83398;938.5028;;;;
2021/09/17 08:45:04;;;;;;;5.6;4.3;;;;;;;15.6;83.38867;938.4754;;;;
2021/09/17 08:47:29;;;;;;;4.3;3.6;;;;;;;15.97;82.86035;938.5244;;;;
2021/09/17 08:49:54;;;;;;;5;3.6;;;;;;;16.24;81.48633;938.4295;;;;
2021/09/17 08:52:19;;;;;;;5.6;3.5;;;;;;;16.47;80.8457;938.4792;;;;
2021/09/17 08:54:46;;;;;;;3.7;2.9;;;;;;;16.28;78.23047;938.4467;;;;
2021/09/17 08:57:11;;;;;;;4.8;3;;;;;;;16.51;79.5459;938.473;;;;
2021/09/17 08:59:38;;;;;;;3.2;2.8;;;;;;;16.66;77.93945;938.4143;;;;
2021/09/17 09:02:03;;;;;;;3.4;2.8;;;;;;;16.8;78.55566;938.3884;;;;
2021/09/17 09:04:30;;;;;;;3.7;2.6;;;;;;;17.05;78.78711;938.3748;;;;
2021/09/17 09:06:55;;;;;;;3;2.7;;;;;;;16.95;76.23145;938.3906;;;;
2021/09/17 09:09:24;;;;;;;3.1;2.7;;;;;;;16.87;78.78906;938.3564;;;;
2021/09/17 09:11:49;;;;;;;4.6;3.2;;;;;;;17.03;79.67578;938.3751;;;;
2021/09/17 09:15:36;;;;;;;2.9;2.6;;;;;;;17.06;76.36621;938.3844;;;;
2021/09/17 09:18:04;;;;;;;4.1;2.9;;;;;;;17.15;76.03418;938.3106;;;;
2021/09/17 09:20:30;;;;;;;4.2;3.2;;;;;;;17.2;77.00391;938.3387;;;;
2021/09/17 09:22:55;;;;;;;3.6;3.2;;;;;;;17.34;76.05566;938.315;;;;
2021/09/17 09:25:20;;;;;;;3.5;3.1;;;;;;;17.43;77.34668;938.2567;;;;
2021/09/17 09:27:50;;;;;;;4.4;2.9;;;;;;;17.2;75.16211;938.2736;;;;
2021/09/17 09:30:15;;;;;;;3.3;2.9;;;;;;;17.42;78.49219;938.2126;;;;
2021/09/17 09:32:40;;;;;;;3.9;2.9;;;;;;;17.81;75.32422;938.2111;;;;
2021/09/17 09:35:13;;;;;;;3.1;2.7;;;;;;;17.61;73.90918;938.2253;;;;
2021/09/17 09:37:42;;;;;;;3.7;2.9;;;;;;;17.7;73.45996;938.2034;;;;
2021/09/17 09:40:07;;;;;;;4.4;2.9;;;;;;;18.08;74.11523;938.196;;;;
2021/09/17 09:42:34;;;;;;;3.6;2.9;;;;;;;17.93;73.89258;938.0899;;;;
2021/09/17 09:44:59;;;;;;;4.8;2.6;;;;;;;17.98;74.45703;938.176;;;;
2021/09/17 09:47:25;;;;;;;3.5;2.9;;;;;;;17.61;75.47559;938.136;;;;
2021/09/17 09:49:50;;;;;;;3.7;3.2;;;;;;;17.34;74.90527;938.0631;;;;
2021/09/17 09:52:15;;;;;;;4.2;3.3;;;;;;;17.74;71.64355;938.1456;;;;
2021/09/17 09:54:44;;;;;;;4.9;3;;;;;;;17.71;72.85645;938.0656;;;;
2021/09/17 09:57:09;;;;;;;3.6;3;;;;;;;17.97;70.81055;937.9819;;;;
2021/09/17 09:59:37;;;;;;;3.9;2.6;;;;;;;17.77;68.86328;938.0168;;;;
2021/09/17 10:02:02;;;;;;;3.7;2.5;;;;;;;17.69;68.67676;937.9749;;;;
2021/09/17 10:04:28;;;;;;;2.8;2.2;;;;;;;17.47;67.55078;937.9952;;;;
2021/09/17 10:06:53;;;;;;;2.3;2.1;;;;;;;17.76;70.25488;938.0436;;;;
2021/09/17 10:09:20;;;;;;;4.4;2.6;;;;;;;17.85;68.36523;938.0212;;;;
2021/09/17 10:11:45;;;;;;;2.8;2.4;;;;;;;17.75;68.95215;938.0302;;;;
2021/09/17 10:14:14;;;;;;;2.8;2.2;;;;;;;17.7;68.45703;937.9875;;;;
2021/09/17 10:16:43;;;;;;;2.7;1.9;;;;;;;17.71;71.55762;937.9827;;;;
2021/09/17 10:19:08;;;;;;;2.6;1.8;;;;;;;18.16;66.62305;937.8962;;;;
2021/09/17 10:21:37;;;;;;;2.2;2;;;;;;;17.95;66.45117;937.8438;;;;
2021/09/17 10:24:04;;;;;;;2.3;1.8;;;;;;;18.31;63.76367;937.8281;;;;
2021/09/17 10:26:29;;;;;;;2.2;1.8;;;;;;;18.16;63.06836;937.8052;;;;
2021/09/17 10:28:54;;;;;;;2.9;1.6;;;;;;;18.43;60.81543;937.8453;;;;
2021/09/17 10:31:20;;;;;;;2.7;1.7;;;;;;;18.66;62.41797;937.8013;;;;
2021/09/17 10:33:46;;;;;;;1.9;1.5;;;;;;;18.81;62.08887;937.802;;;;
2021/09/17 10:36:18;;;;;;;3.7;2.6;;;;;;;18.51;63.70996;937.8008;;;;
2021/09/17 10:38:43;;;;;;;2.8;2.3;;;;;;;18.43;66.38379;937.863;;;;
2021/09/17 10:41:11;;;;;;;3.3;2.4;;;;;;;18.42;65.35938;937.7864;;;;
2021/09/17 10:43:38;;;;;;;2.1;1.9;;;;;;;18.7;64.99512;937.8093;;;;
2021/09/17 10:46:02;;;;;;;2;1.8;;;;;;;18.88;62.44824;937.7733;;;;
2021/09/17 10:48:29;;;;;;;2.1;1.9;;;;;;;19.17;63.01367;937.7045;;;;
2021/09/17 10:50:54;;;;;;;3.4;2;;;;;;;19.15;61.03125;937.7024;;;;
2021/09/17 10:53:19;;;;;;;2.8;1.7;;;;;;;19.43;60.8252;937.7317;;;;
2021/09/17 10:55:51;;;;;;;2.8;1.9;;;;;;;19.74;57.52246;937.7029;;;;
2021/09/17 10:58:11;;;;;;;2.1;1.5;;;;;;;19.86;58.48145;937.575;;;;
2021/09/17 11:00:37;;;;;;;1.6;1.4;;;;;;;19.71;59.13867;937.6182;;;;
2021/09/17 11:03:05;;;;;;;1.7;1.6;;;;;;;19.93;60.88379;937.6375;;;;
2021/09/17 11:05:30;;;;;;;2.3;1.7;;;;;;;19.77;59.75293;937.5553;;;;
2021/09/17 11:07:55;;;;;;;3.6;1.7;;;;;;;19.71;60.22363;937.6222;;;;
2021/09/17 11:10:21;;;;;;;2.2;1.7;;;;;;;19.7;56.02441;937.6451;;;;
2021/09/17 11:12:49;;;;;;;3.3;1.5;;;;;;;19.73;57.06543;937.5959;;;;
2021/09/17 11:15:27;;;;;;;1.4;1.3;;;;;;;19.53;55.4541;937.5966;;;;
2021/09/17 11:17:58;;;;;;;1.9;1.5;;;;;;;19.26;61.1748;937.6371;;;;
2021/09/17 11:20:22;;;;;;;1.5;1.4;;;;;;;18.75;60.91699;937.634;;;;
2021/09/17 11:22:48;;;;;;;2;1.3;;;;;;;18.98;58.41309;937.5754;;;;
2021/09/17 11:25:14;;;;;;;1.4;1.3;;;;;;;18.7;61.48242;937.6012;;;;
2021/09/17 11:27:41;;;;;;;2.1;1.3;;;;;;;18.57;60.10254;937.6067;;;;
2021/09/17 11:30:06;;;;;;;1.5;1.2;;;;;;;18.62;62.59766;937.5895;;;;
2021/09/17 11:32:34;;;;;;;1;1;;;;;;;18.86;59.58301;937.5873;;;;
2021/09/17 11:34:59;;;;;;;1.3;1.2;;;;;;;18.86;58.24512;937.5251;;;;
2021/09/17 11:37:25;;;;;;;2.6;1.3;;;;;;;18.64;60.28516;937.5792;;;;
2021/09/17 11:39:51;;;;;;;1.3;1.2;;;;;;;18.65;58.10254;937.5603;;;;
2021/09/17 11:42:15;;;;;;;1.2;1.1;;;;;;;18.79;56.85156;937.4966;;;;
2021/09/17 11:44:43;;;;;;;1.4;1.1;;;;;;;19;57.41406;937.4661;;;;
2021/09/17 11:47:06;;;;;;;1.7;1.1;;;;;;;19.15;57.32813;937.5072;;;;
2021/09/17 11:49:31;;;;;;;1.8;1.5;;;;;;;19.02;58.97656;937.4906;;;;
2021/09/17 11:51:57;;;;;;;2.2;1.1;;;;;;;18.96;55.98926;937.4807;;;;
2021/09/17 11:54:25;;;;;;;2.1;1.3;;;;;;;19.14;57.0127;937.509;;;;
2021/09/17 11:56:50;;;;;;;1.7;1.3;;;;;;;18.85;60.9082;937.4924;;;;
2021/09/17 11:59:16;;;;;;;1.5;1.2;;;;;;;19.06;58.63379;937.4584;;;;
2021/09/17 12:01:41;;;;;;;1.4;1.3;;;;;;;19.34;58.05176;937.4221;;;;
2021/09/17 12:04:09;;;;;;;1.4;1.3;;;;;;;19.47;56.29883;937.4076;;;;
2021/09/17 12:06:34;;;;;;;1.8;1.3;;;;;;;19.66;56.29883;937.3126;;;;
2021/09/17 12:08:59;;;;;;;1.6;1.2;;;;;;;19.42;59.51953;937.3627;;;;
2021/09/17 12:11:26;;;;;;;2.5;1.4;;;;;;;19.53;60.39648;937.3187;;;;
2021/09/17 12:13:51;;;;;;;1.4;1.2;;;;;;;19.54;57.3916;937.334;;;;
2021/09/17 12:16:21;;;;;;;1.5;1.4;;;;;;;19.06;58.65527;937.348;;;;
2021/09/17 12:18:51;;;;;;;1.7;1.4;;;;;;;19.33;56.44336;937.2985;;;;
2021/09/17 12:21:16;;;;;;;2.2;1.4;;;;;;;19.5;56.68652;937.3027;;;;
2021/09/17 12:23:47;;;;;;;1.3;1.2;;;;;;;19.2;58.60352;937.3154;;;;
2021/09/17 12:26:11;;;;;;;1.3;1.2;;;;;;;18.9;61.34668;937.3006;;;;
2021/09/17 12:28:40;;;;;;;1.5;1.4;;;;;;;19.07;59.24023;937.2935;;;;
2021/09/17 12:31:10;;;;;;;2;1.6;;;;;;;18.94;57.79004;937.2747;;;;
2021/09/17 12:33:35;;;;;;;1.4;1.3;;;;;;;19.01;58.34668;937.2656;;;;
2021/09/17 12:36:00;;;;;;;1.9;1.6;;;;;;;18.95;59.07031;937.2285;;;;
2021/09/17 12:38:25;;;;;;;2.4;1.4;;;;;;;19.13;58.49121;937.1903;;;;
2021/09/17 12:40:50;;;;;;;2;1.5;;;;;;;19.25;61.89551;937.2168;;;;
2021/09/17 12:43:18;;;;;;;4.6;1.8;;;;;;;19.31;60.83301;937.2289;;;;
2021/09/17 12:45:44;;;;;;;2.1;1.6;;;;;;;19.33;59.57715;937.2048;;;;
2021/09/17 12:48:11;;;;;;;1.4;1.1;;;;;;;19.45;59.05664;937.2062;;;;
2021/09/17 12:50:37;;;;;;;2.1;1.7;;;;;;;18.8;60.69141;937.1738;;;;
2021/09/17 12:53:04;;;;;;;2;1.5;;;;;;;18.79;62.56348;937.1933;;;;
2021/09/17 12:55:29;;;;;;;1.6;1.5;;;;;;;19.07;63.82617;937.1943;;;;
2021/09/17 12:57:54;;;;;;;2;1.6;;;;;;;19.26;61.15234;937.2099;;;;
2021/09/17 13:00:23;;;;;;;1.7;1.4;;;;;;;19.24;59.11133;937.1273;;;;
2021/09/17 13:02:48;;;;;;;2.2;1.5;;;;;;;19.23;58.6416;937.1285;;;;
2021/09/17 13:05:17;;;;;;;2.6;1.7;;;;;;;19.16;61.25391;937.1186;;;;
2021/09/17 13:07:42;;;;;;;2.2;1.3;;;;;;;19.11;60.56055;937.1028;;;;
2021/09/17 13:10:10;;;;;;;1.5;1.4;;;;;;;18.9;59.13574;937.1127;;;;
2021/09/17 13:12:40;;;;;;;2.4;1.7;;;;;;;18.98;60.35547;937.089;;;;
2021/09/17 13:15:05;;;;;;;1.9;1.6;;;;;;;18.85;59.53516;937.0178;;;;
2021/09/17 13:17:34;;;;;;;2.5;1.6;;;;;;;18.66;61.68555;936.9744;;;;
2021/09/17 13:19:59;;;;;;;1.7;1.6;;;;;;;18.96;61.44824;936.9458;;;;
2021/09/17 13:22:25;;;;;;;2.2;1.8;;;;;;;19.1;59.83594;936.9838;;;;
2021/09/17 13:24:50;;;;;;;2.3;1.6;;;;;;;19.23;60.77637;936.9886;;;;
2021/09/17 13:27:17;;;;;;;1.9;1.4;;;;;;;19.24;60.03223;936.9392;;;;
2021/09/17 13:29:42;;;;;;;2.5;1.7;;;;;;;19.08;60.35742;936.9214;;;;
2021/09/17 13:32:10;;;;;;;1.8;1.5;;;;;;;19.14;60.66895;936.8753;;;;
2021/09/17 13:34:35;;;;;;;1.6;1.3;;;;;;;19.12;60.21289;936.8879;;;;
2021/09/17 13:37:02;;;;;;;2.7;1.7;;;;;;;19.08;60.02148;936.9002;;;;
2021/09/17 13:39:27;;;;;;;2.6;1.7;;;;;;;19.31;59.62109;936.9003;;;;
2021/09/17 13:41:54;;;;;;;2.6;1.8;;;;;;;19.14;59.94727;936.8793;;;;
2021/09/17 13:44:19;;;;;;;2.2;1.7;;;;;;;19.15;60.42578;936.8751;;;;
2021/09/17 13:46:45;;;;;;;1.5;1.4;;;;;;;19.17;59.99707;936.8406;;;;
2021/09/17 13:49:10;;;;;;;1.7;1.6;;;;;;;18.89;62.05469;936.825;;;;
2021/09/17 13:51:37;;;;;;;1.8;1.7;;;;;;;19.18;62.21094;936.8719;;;;
2021/09/17 13:54:02;;;;;;;1.7;1.6;;;;;;;19.03;60.74609;936.8516;;;;
2021/09/17 13:56:28;;;;;;;2.1;1.6;;;;;;;19.08;60.3125;936.8162;;;;
2021/09/17 13:58:53;;;;;;;1.8;1.7;;;;;;;19.16;60.92773;936.8725;;;;
2021/09/17 14:01:24;;;;;;;2.4;1.8;;;;;;;19.24;62.12695;936.7811;;;;
2021/09/17 14:03:50;;;;;;;1.9;1.5;;;;;;;19.27;61.06055;936.7996;;;;
2021/09/17 14:06:15;;;;;;;1.8;1.7;;;;;;;19.32;60.75195;936.7894;;;;
2021/09/17 14:08:40;;;;;;;2.5;1.9;;;;;;;19.3;60.37695;936.7833;;;;
2021/09/17 14:11:06;;;;;;;3.2;1.7;;;;;;;19.18;61.39746;936.7733;;;;
2021/09/17 14:13:32;;;;;;;1.6;1.5;;;;;;;19.24;60.8457;936.7424;;;;
2021/09/17 14:15:58;;;;;;;2.7;1.8;;;;;;;19.34;63.09668;936.7251;;;;
2021/09/17 14:18:23;;;;;;;2;1.8;;;;;;;19.31;62.14844;936.7211;;;;
2021/09/17 14:20:53;;;;;;;2.2;1.6;;;;;;;19.25;62.47949;936.733;;;;